Mc Bride, Missouri
Current Conditions -  °F | °C
As of 10:35 AM on Sunday 21 Dec 2014 (Local Time) from KSAR Reporting Station
Overcast Overcast  
Wind Chill: 37°   Ceiling: 2300
Heat Index: 37°   Visibility: 10mi
Dew Point: 30°   Wind: 3mph
Humidity: 78%   Direction: 150°SSE
Pressure: 30.23"   Gusts: NA
Location:  37.8321°N, 89.8389°W
Report Text: KSAR 211635Z AUTO 15003KT 10SM OVC023 03/M01 A3023 RMK AO2 T00251010
Loading
Personal Weather Stations






























Interactive Weather Map New forecast layout! Learn more

10-Day Weather Forecast

Advertisements
Track Severe Weather on mobile